createdAt,value
2019-02-02T00:02:17.412Z,30.70
2019-02-02T00:04:48.966Z,33.40
2019-02-02T00:07:20.470Z,35.67
2019-02-02T00:09:52.212Z,31.53
2019-02-02T00:12:23.719Z,30.60
2019-02-02T00:14:55.267Z,32.37
2019-02-02T00:17:27.840Z,31.83
2019-02-02T00:19:59.305Z,31.73
2019-02-02T00:22:30.794Z,31.77
2019-02-02T00:25:02.322Z,33.00
2019-02-02T00:27:41.120Z,32.27
2019-02-02T00:30:17.176Z,33.47
2019-02-02T00:32:48.651Z,34.47
2019-02-02T00:35:20.368Z,31.70
2019-02-02T00:37:54.107Z,29.93
2019-02-02T00:40:27.658Z,30.57
2019-02-02T00:42:59.179Z,31.27
2019-02-02T00:45:34.623Z,32.47
2019-02-02T00:48:07.347Z,31.67
2019-02-02T00:50:39.005Z,31.20
2019-02-02T00:53:10.588Z,31.00
2019-02-02T00:55:42.188Z,31.27
2019-02-02T00:58:13.740Z,30.17
2019-02-02T01:00:46.445Z,31.37
2019-02-02T01:03:17.956Z,30.33
2019-02-02T01:05:49.859Z,31.40
2019-02-02T01:08:21.507Z,30.60
2019-02-02T01:10:53.036Z,30.07
2019-02-02T01:13:24.580Z,30.50
2019-02-02T01:15:56.172Z,29.90
2019-02-02T01:18:27.786Z,30.80
2019-02-02T01:20:59.468Z,35.07
2019-02-02T01:23:30.967Z,34.77
2019-02-02T01:26:02.525Z,37.63
2019-02-02T01:28:33.943Z,37.90
2019-02-02T01:31:05.521Z,36.40
2019-02-02T01:33:36.984Z,34.20
2019-02-02T01:36:08.576Z,34.07
2019-02-02T01:38:40.162Z,32.87
2019-02-02T01:41:11.739Z,32.00
2019-02-02T01:43:43.230Z,30.30
2019-02-02T01:46:14.816Z,31.33
2019-02-02T01:48:46.399Z,33.80
2019-02-02T01:51:18.012Z,35.17
2019-02-02T01:53:49.481Z,38.87
2019-02-02T01:56:22.152Z,36.93
2019-02-02T01:58:53.470Z,36.83
2019-02-02T02:01:27.054Z,34.77
2019-02-02T02:03:58.610Z,31.57
2019-02-02T02:06:30.202Z,31.43
2019-02-02T02:09:01.693Z,31.60
2019-02-02T02:11:34.818Z,30.70
2019-02-02T02:14:06.361Z,31.40
2019-02-02T02:16:38.123Z,31.63
2019-02-02T02:19:09.682Z,29.47
2019-02-02T02:21:41.210Z,29.30
2019-02-02T02:24:12.668Z,27.60
2019-02-02T02:26:44.198Z,28.13
2019-02-02T02:29:15.789Z,26.97
2019-02-02T02:31:47.272Z,27.27
2019-02-02T02:34:18.700Z,26.97
2019-02-02T02:36:50.236Z,25.73
2019-02-02T02:39:21.744Z,26.80
2019-02-02T02:41:53.229Z,28.30
2019-02-02T02:44:24.598Z,29.53
2019-02-02T02:46:55.974Z,31.17
2019-02-02T02:49:27.570Z,31.40
2019-02-02T02:51:58.998Z,30.70
2019-02-02T02:54:30.595Z,31.40
2019-02-02T02:57:02.105Z,31.83
2019-02-02T02:59:33.649Z,31.27
2019-02-02T03:02:05.513Z,31.07
2019-02-02T03:04:37.126Z,28.27
2019-02-02T03:07:08.850Z,29.60
2019-02-02T03:09:42.034Z,29.47
2019-02-02T03:12:13.636Z,28.40
2019-02-02T03:14:47.799Z,30.30
2019-02-02T03:17:18.932Z,29.93
2019-02-02T03:19:50.614Z,29.57
2019-02-02T03:22:22.069Z,29.43
2019-02-02T03:24:53.509Z,27.97
2019-02-02T03:27:24.860Z,27.93
2019-02-02T03:29:56.442Z,27.87
2019-02-02T03:32:27.881Z,28.17
2019-02-02T03:34:59.298Z,28.73
2019-02-02T03:37:30.634Z,27.13
2019-02-02T03:40:02.067Z,27.27
2019-02-02T03:42:33.790Z,27.20
2019-02-02T03:45:07.971Z,29.73
2019-02-02T03:47:42.426Z,30.77
2019-02-02T03:50:14.540Z,30.43
2019-02-02T03:52:46.197Z,30.07
2019-02-02T03:55:17.943Z,30.30
2019-02-02T03:57:49.744Z,29.10
2019-02-02T04:00:23.097Z,29.67
2019-02-02T04:03:04.803Z,29.03
2019-02-02T04:05:38.996Z,29.77
2019-02-02T04:08:10.583Z,30.10
2019-02-02T04:10:42.124Z,29.23
2019-02-02T04:13:13.783Z,27.93
2019-02-02T04:15:45.316Z,27.90
2019-02-02T04:18:17.805Z,28.43
2019-02-02T04:20:49.564Z,28.80
2019-02-02T04:23:20.991Z,27.97
2019-02-02T04:25:52.567Z,27.03
2019-02-02T04:28:24.132Z,25.67
2019-02-02T04:30:55.583Z,27.77
2019-02-02T04:33:27.197Z,26.43
2019-02-02T04:35:58.783Z,28.43
2019-02-02T04:38:30.330Z,26.83
2019-02-02T04:41:01.814Z,29.03
2019-02-02T04:43:33.389Z,28.50
2019-02-02T04:46:04.819Z,30.30
2019-02-02T04:48:36.583Z,29.00
2019-02-02T04:51:08.105Z,32.53
2019-02-02T04:53:39.717Z,32.53
2019-02-02T04:56:11.378Z,29.97
2019-02-02T04:58:42.826Z,30.73
2019-02-02T05:01:14.463Z,31.00
2019-02-02T05:03:46.105Z,30.07
2019-02-02T05:06:17.746Z,30.33
2019-02-02T05:08:49.330Z,30.10
2019-02-02T05:11:20.892Z,28.43
2019-02-02T05:13:52.377Z,31.13
2019-02-02T05:16:23.987Z,30.50
2019-02-02T05:18:55.496Z,29.77
2019-02-02T05:21:26.994Z,27.93
2019-02-02T05:23:58.622Z,28.27
2019-02-02T05:26:30.107Z,30.50
2019-02-02T05:29:01.662Z,28.67
2019-02-02T05:31:33.270Z,27.73
2019-02-02T05:34:05.101Z,28.07
2019-02-02T05:36:36.578Z,28.77
2019-02-02T05:39:09.088Z,27.33
2019-02-02T05:41:40.650Z,29.43
2019-02-02T05:44:12.300Z,31.23
2019-02-02T05:46:46.687Z,31.10
2019-02-02T05:49:25.456Z,32.17
2019-02-02T05:51:56.731Z,32.93
2019-02-02T05:54:28.250Z,33.77
2019-02-02T05:56:59.779Z,34.37
2019-02-02T05:59:31.288Z,34.27
2019-02-02T06:02:02.926Z,37.10
2019-02-02T06:04:46.826Z,34.43
2019-02-02T06:07:19.954Z,35.63
2019-02-02T06:09:56.470Z,35.40
2019-02-02T06:12:38.567Z,37.57
2019-02-02T06:15:01.971Z,38.70
2019-02-02T06:17:33.582Z,38.87
2019-02-02T06:20:16.853Z,38.27
2019-02-02T06:22:48.400Z,39.07
2019-02-02T06:25:23.620Z,41.37
2019-02-02T06:27:55.192Z,41.67
2019-02-02T06:31:00.055Z,40.47
2019-02-02T06:33:41.327Z,39.57
2019-02-02T06:36:20.693Z,40.27
2019-02-02T06:38:54.148Z,40.73
2019-02-02T06:41:25.608Z,41.73
2019-02-02T06:44:06.671Z,40.27
2019-02-02T06:46:43.695Z,40.90
2019-02-02T06:49:13.123Z,42.37
2019-02-02T06:51:44.555Z,41.83
2019-02-02T06:54:16.097Z,41.93
2019-02-02T06:56:47.767Z,39.47
2019-02-02T06:59:19.183Z,41.30
2019-02-02T07:01:53.014Z,43.80
2019-02-02T07:07:20.531Z,40.13
2019-02-02T07:10:06.079Z,41.97
2019-02-02T07:12:40.614Z,42.87
2019-02-02T07:15:16.463Z,42.10
2019-02-02T07:17:48.095Z,41.50
2019-02-02T07:20:22.794Z,42.53
2019-02-02T07:22:56.136Z,42.63
2019-02-02T07:36:09.946Z,43.50
2019-02-02T07:38:45.028Z,44.77
2019-02-02T07:41:16.990Z,46.53
2019-02-02T07:43:48.628Z,45.27
2019-02-02T07:46:20.268Z,45.57
2019-02-02T07:48:58.849Z,46.80
2019-02-02T07:51:30.483Z,44.93
2019-02-02T07:54:04.930Z,45.33
2019-02-02T07:59:16.915Z,45.60
2019-02-02T08:02:00.832Z,44.67
2019-02-02T08:04:34.197Z,47.23
2019-02-02T08:07:05.935Z,47.57
2019-02-02T08:09:38.996Z,50.20
2019-02-02T08:12:10.874Z,50.17
2019-02-02T08:14:42.240Z,49.90
2019-02-02T08:17:13.911Z,50.50
2019-02-02T08:19:45.486Z,52.43
2019-02-02T08:22:16.817Z,52.23
2019-02-02T08:24:48.182Z,52.43
2019-02-02T08:27:19.767Z,52.37
2019-02-02T08:29:51.251Z,52.90
2019-02-02T08:32:22.904Z,59.90
2019-02-02T08:34:54.503Z,54.67
2019-02-02T08:37:27.801Z,51.30
2019-02-02T08:39:59.374Z,51.13
2019-02-02T08:42:30.784Z,49.83
2019-02-02T08:45:10.260Z,48.43
2019-02-02T08:47:42.255Z,49.13
2019-02-02T08:50:27.734Z,48.80
2019-02-02T08:53:01.301Z,46.67
2019-02-02T08:55:46.838Z,47.37
2019-02-02T08:58:18.383Z,45.20
2019-02-02T09:00:50.048Z,45.20
2019-02-02T09:03:22.823Z,44.37
2019-02-02T09:05:55.388Z,42.90
2019-02-02T09:08:27.546Z,42.83
2019-02-02T09:10:59.339Z,40.83
2019-02-02T09:13:31.855Z,41.97
2019-02-02T09:16:03.800Z,41.50
2019-02-02T09:18:35.713Z,42.57
2019-02-02T09:23:37.529Z,41.40
2019-02-02T09:26:10.060Z,42.30
2019-02-02T09:28:41.505Z,43.00
2019-02-02T09:31:31.155Z,41.17
2019-02-02T09:34:02.689Z,38.67
2019-02-02T09:36:34.301Z,40.07
2019-02-02T09:39:13.388Z,38.73
2019-02-02T09:41:44.772Z,43.40
2019-02-02T09:44:16.275Z,42.70
2019-02-02T09:46:50.464Z,38.87
2019-02-02T09:49:21.875Z,39.77
2019-02-02T09:51:53.469Z,36.40
2019-02-02T09:54:26.665Z,35.23
2019-02-02T09:56:57.900Z,35.27
2019-02-02T09:59:29.291Z,34.17
2019-02-02T10:02:00.729Z,32.20
2019-02-02T10:04:32.298Z,30.43
2019-02-02T10:07:03.677Z,30.23
2019-02-02T10:09:35.610Z,30.60
2019-02-02T10:12:07.093Z,31.13
2019-02-02T10:14:41.773Z,30.83
2019-02-02T10:17:13.196Z,29.97
2019-02-02T10:19:44.576Z,31.13
2019-02-02T10:22:16.144Z,31.00
2019-02-02T10:24:49.098Z,29.50
2019-02-02T10:27:20.628Z,33.00
2019-02-02T10:29:52.382Z,31.43
2019-02-02T10:32:28.198Z,28.63
2019-02-02T10:35:05.826Z,28.67
2019-02-02T10:37:40.452Z,27.00
2019-02-02T10:40:15.535Z,27.50
2019-02-02T10:42:47.054Z,26.77
2019-02-02T10:45:19.810Z,26.40
2019-02-02T10:47:53.050Z,27.70
2019-02-02T10:50:30.196Z,28.43
2019-02-02T10:53:01.799Z,26.77
2019-02-02T10:55:33.659Z,27.10
2019-02-02T10:58:06.149Z,25.48
2019-02-02T11:00:40.299Z,28.27
2019-02-02T11:03:11.786Z,28.10
2019-02-02T11:05:43.814Z,27.00
2019-02-02T11:08:15.518Z,27.27
2019-02-02T11:10:47.317Z,27.62
2019-02-02T11:13:18.850Z,26.85
2019-02-02T11:15:50.363Z,26.40
2019-02-02T11:18:21.949Z,25.65
2019-02-02T11:20:53.620Z,26.25
2019-02-02T11:23:25.918Z,24.32
2019-02-02T11:25:57.371Z,25.47
2019-02-02T11:28:29.012Z,25.77
2019-02-02T11:31:00.668Z,25.80
2019-02-02T11:33:32.369Z,26.90
2019-02-02T11:36:04.063Z,26.65
2019-02-02T11:38:35.393Z,26.33
2019-02-02T11:41:07.032Z,25.08
2019-02-02T11:43:38.379Z,25.15
2019-02-02T11:46:09.982Z,25.55
2019-02-02T11:48:41.296Z,24.80
2019-02-02T11:51:12.765Z,24.40
2019-02-02T11:53:44.230Z,24.10
2019-02-02T11:56:17.158Z,24.52
2019-02-02T11:58:48.573Z,24.50
2019-02-02T12:01:20.113Z,25.03
2019-02-02T12:03:57.861Z,25.45
2019-02-02T12:06:28.201Z,23.18
2019-02-02T12:08:59.696Z,24.98
2019-02-02T12:11:29.455Z,24.00
2019-02-02T12:14:02.635Z,24.43
2019-02-02T12:16:34.072Z,25.35
2019-02-02T12:19:08.371Z,24.00
2019-02-02T12:21:39.896Z,22.95
2019-02-02T12:24:14.365Z,23.38
2019-02-02T12:26:46.087Z,23.15
2019-02-02T12:29:20.758Z,22.50
2019-02-02T12:31:52.334Z,24.67
2019-02-02T12:34:23.737Z,22.35
2019-02-02T12:36:58.978Z,23.12
2019-02-02T12:39:31.108Z,23.30
2019-02-02T12:42:02.638Z,22.87
2019-02-02T12:44:35.683Z,23.77
2019-02-02T12:50:23.911Z,24.18
2019-02-02T12:52:56.873Z,25.17
2019-02-02T12:55:28.412Z,23.27
2019-02-02T12:57:59.935Z,25.57
2019-02-02T13:00:31.463Z,23.40
2019-02-02T13:03:02.937Z,26.77
2019-02-02T13:05:34.556Z,29.52
2019-02-02T13:08:07.010Z,27.75
2019-02-02T13:10:38.534Z,23.10
2019-02-02T13:13:10.846Z,22.70
2019-02-02T13:15:43.862Z,22.82
2019-02-02T13:18:16.203Z,27.25
2019-02-02T13:20:47.772Z,29.18
2019-02-02T13:23:19.030Z,26.80
2019-02-02T13:25:50.462Z,24.12
2019-02-02T13:28:23.830Z,21.15
2019-02-02T13:30:55.469Z,20.90
2019-02-02T13:33:29.445Z,22.50
2019-02-02T13:36:03.516Z,21.07
2019-02-02T13:38:34.998Z,22.10
2019-02-02T13:41:06.652Z,20.05
2019-02-02T13:43:38.159Z,20.57
2019-02-02T13:46:09.676Z,22.45
2019-02-02T13:48:40.995Z,24.25
2019-02-02T13:51:14.277Z,25.00
2019-02-02T13:53:52.417Z,23.25
2019-02-02T13:56:24.111Z,23.10
2019-02-02T13:58:55.544Z,22.65
2019-02-02T14:01:28.555Z,24.18
2019-02-02T14:04:00.218Z,23.50
2019-02-02T14:06:32.313Z,22.73
2019-02-02T14:09:05.400Z,24.23
2019-02-02T14:11:44.356Z,24.20
2019-02-02T14:14:22.136Z,21.97
2019-02-02T14:16:55.422Z,22.95
2019-02-02T14:19:28.599Z,22.90
2019-02-02T14:22:10.425Z,22.15
2019-02-02T14:24:44.253Z,23.00
2019-02-02T14:27:19.187Z,23.45
2019-02-02T14:29:57.100Z,26.90
2019-02-02T14:32:28.447Z,27.98
2019-02-02T14:35:02.707Z,25.62
2019-02-02T14:37:34.949Z,27.13
2019-02-02T14:40:13.085Z,25.35
2019-02-02T14:42:44.541Z,24.70
2019-02-02T14:45:27.065Z,25.48
2019-02-02T14:47:56.469Z,23.80
2019-02-02T14:50:31.935Z,23.37
2019-02-02T14:53:04.401Z,23.20
2019-02-02T14:55:36.098Z,25.45
2019-02-02T14:58:10.806Z,25.40
2019-02-02T15:00:53.727Z,27.13
2019-02-02T15:03:25.770Z,24.52
2019-02-02T15:05:57.065Z,24.37
2019-02-02T15:08:31.708Z,25.05
2019-02-02T15:11:05.183Z,24.25
2019-02-02T15:13:42.840Z,24.25
2019-02-02T15:16:14.411Z,23.00
2019-02-02T15:18:50.898Z,23.42
2019-02-02T15:21:23.106Z,26.12
2019-02-02T15:23:56.282Z,27.30
2019-02-02T15:26:29.581Z,25.17
2019-02-02T15:29:01.031Z,26.60
2019-02-02T15:31:32.333Z,23.25
2019-02-02T15:34:03.818Z,23.22
2019-02-02T15:36:37.382Z,20.00
2019-02-02T15:39:13.440Z,16.82
2019-02-02T15:41:52.922Z,16.20
2019-02-02T15:44:21.203Z,11.33
2019-02-02T15:46:54.229Z,11.08
2019-02-02T15:49:25.640Z,9.30
2019-02-02T15:51:59.604Z,9.65
2019-02-02T15:57:03.809Z,11.18
2019-02-02T15:59:35.088Z,12.15
2019-02-02T16:02:06.686Z,13.32
2019-02-02T16:04:38.120Z,16.48
2019-02-02T16:07:09.456Z,24.80
2019-02-02T16:09:42.359Z,24.90
2019-02-02T16:12:13.563Z,25.45
2019-02-02T16:14:44.863Z,25.57
2019-02-02T16:17:18.048Z,26.12
2019-02-02T16:19:49.399Z,25.92
2019-02-02T16:22:22.284Z,24.98
2019-02-02T16:24:53.631Z,24.70
2019-02-02T16:27:27.267Z,36.68
2019-02-02T16:30:03.813Z,25.02
2019-02-02T16:32:35.196Z,25.30
2019-02-02T16:35:10.792Z,24.23
2019-02-02T16:37:42.090Z,24.23
2019-02-02T16:40:26.232Z,24.82
2019-02-02T16:42:57.958Z,24.47
2019-02-02T16:45:34.842Z,21.68
2019-02-02T16:48:08.285Z,21.42
2019-02-02T16:50:41.151Z,22.90
2019-02-02T16:53:14.445Z,23.18
2019-02-02T16:55:45.793Z,20.65
2019-02-02T16:58:17.083Z,20.50
2019-02-02T17:00:57.244Z,21.07
2019-02-02T17:03:28.686Z,19.75
2019-02-02T17:06:00.117Z,18.65
2019-02-02T17:08:31.436Z,21.52
2019-02-02T17:11:02.747Z,21.00
2019-02-02T17:13:42.748Z,23.27
2019-02-02T17:16:14.180Z,27.05
2019-02-02T17:18:45.510Z,32.30
2019-02-02T17:21:16.859Z,35.00
2019-02-02T17:23:48.184Z,30.00
2019-02-02T17:26:19.609Z,33.92
2019-02-02T17:28:50.962Z,35.90
2019-02-02T17:31:22.406Z,35.52
2019-02-02T17:33:53.764Z,36.28
2019-02-02T17:36:25.183Z,30.75
2019-02-02T17:38:56.627Z,34.65
2019-02-02T17:41:29.786Z,34.38
2019-02-02T17:44:02.293Z,36.17
2019-02-02T17:46:39.899Z,36.00
2019-02-02T17:49:11.403Z,33.63
2019-02-02T17:51:42.896Z,32.60
2019-02-02T17:54:14.298Z,29.95
2019-02-02T17:56:51.560Z,27.90
2019-02-02T17:59:22.920Z,28.50
2019-02-02T18:01:54.551Z,27.63
2019-02-02T18:04:26.580Z,34.63
2019-02-02T18:06:59.226Z,35.75
2019-02-02T18:09:31.701Z,30.77
2019-02-02T18:12:15.987Z,29.77
2019-02-02T18:14:48.540Z,31.50
2019-02-02T18:17:21.623Z,26.62
2019-02-02T18:19:53.624Z,25.20
2019-02-02T18:22:25.236Z,26.57
2019-02-02T18:24:56.735Z,25.60
2019-02-02T18:27:28.818Z,25.30
2019-02-02T18:30:16.577Z,23.77
2019-02-02T18:32:48.772Z,20.10
2019-02-02T18:35:20.419Z,19.10
2019-02-02T18:37:52.022Z,19.03
2019-02-02T18:40:27.205Z,18.55
2019-02-02T18:42:59.750Z,15.23
2019-02-02T18:45:32.171Z,15.10
2019-02-02T18:48:03.773Z,14.37
2019-02-02T18:50:38.326Z,15.40
2019-02-02T18:53:09.844Z,14.00
2019-02-02T18:55:55.095Z,14.87
2019-02-02T18:58:26.603Z,13.72
2019-02-02T19:00:58.202Z,13.80
2019-02-02T19:03:36.420Z,13.53
2019-02-02T19:06:08.090Z,14.50
2019-02-02T19:08:39.488Z,15.17
2019-02-02T19:11:25.805Z,14.53
2019-02-02T19:13:57.332Z,14.40
2019-02-02T19:16:28.759Z,15.75
2019-02-02T19:19:07.929Z,14.85
2019-02-02T19:21:39.365Z,14.93
2019-02-02T19:24:10.733Z,16.85
2019-02-02T19:26:42.232Z,16.37
2019-02-02T19:29:14.129Z,15.27
2019-02-02T19:31:48.449Z,16.17
2019-02-02T19:34:20.123Z,17.77
2019-02-02T19:36:51.827Z,19.07
2019-02-02T19:39:23.553Z,18.80
2019-02-02T19:41:55.053Z,17.67
2019-02-02T19:44:26.837Z,19.45
2019-02-02T19:46:58.293Z,19.13
2019-02-02T19:49:32.689Z,20.02
2019-02-02T19:52:12.750Z,20.57
2019-02-02T19:54:44.456Z,23.30
2019-02-02T19:57:15.904Z,27.07
2019-02-02T19:59:47.323Z,23.67
2019-02-02T20:02:18.723Z,20.50
2019-02-02T20:04:50.224Z,19.13
2019-02-02T20:07:21.853Z,19.07
2019-02-02T20:09:53.741Z,21.40
2019-02-02T20:12:26.823Z,24.23
2019-02-02T20:15:00.269Z,24.20
2019-02-02T20:17:31.654Z,23.50
2019-02-02T20:20:04.428Z,22.13
2019-02-02T20:22:36.076Z,21.90
2019-02-02T20:25:11.663Z,23.47
2019-02-02T20:27:43.253Z,22.83
2019-02-02T20:30:30.769Z,24.12
2019-02-02T20:33:02.312Z,24.10
2019-02-02T20:35:42.008Z,24.43
2019-02-02T20:38:18.799Z,25.68
2019-02-02T20:40:50.425Z,25.07
2019-02-02T20:43:21.838Z,25.60
2019-02-02T20:45:53.302Z,24.93
2019-02-02T20:48:24.702Z,24.70
2019-02-02T20:50:56.352Z,24.02
2019-02-02T20:53:28.127Z,23.33
2019-02-02T20:56:00.003Z,24.23
2019-02-02T20:58:31.603Z,23.43
2019-02-02T21:01:03.306Z,23.43
2019-02-02T21:03:35.131Z,24.60
2019-02-02T21:06:09.535Z,23.60
2019-02-02T21:08:41.032Z,23.50
2019-02-02T21:11:12.508Z,23.80
2019-02-02T21:13:43.992Z,24.10
2019-02-02T21:16:17.043Z,24.33
2019-02-02T21:18:48.452Z,25.05
2019-02-02T21:21:20.100Z,24.77
2019-02-02T21:23:51.543Z,26.40
2019-02-02T21:26:24.158Z,26.00
2019-02-02T21:28:55.594Z,25.87
2019-02-02T21:31:29.932Z,24.92
2019-02-02T21:34:01.360Z,25.23
2019-02-02T21:36:34.122Z,21.77
2019-02-02T21:39:07.596Z,23.03
2019-02-02T21:41:43.363Z,21.33
2019-02-02T21:44:18.401Z,22.53
2019-02-02T21:46:50.203Z,23.00
2019-02-02T21:49:21.626Z,22.83
2019-02-02T21:51:53.161Z,23.53
2019-02-02T21:54:25.841Z,23.77
2019-02-02T21:56:57.396Z,23.67
2019-02-02T21:59:29.518Z,23.20
2019-02-02T22:02:01.249Z,23.37
2019-02-02T22:04:32.927Z,22.53
2019-02-02T22:07:06.128Z,21.77
2019-02-02T22:09:37.788Z,23.10
2019-02-02T22:12:09.256Z,24.03
2019-02-02T22:14:40.585Z,24.97
2019-02-02T22:17:12.045Z,24.77
2019-02-02T22:19:43.426Z,25.00
2019-02-02T22:22:14.967Z,24.77
2019-02-02T22:24:46.347Z,24.40
2019-02-02T22:27:17.835Z,24.43
2019-02-02T22:29:50.431Z,25.33
2019-02-02T22:32:22.163Z,26.27
2019-02-02T22:34:53.576Z,24.67
2019-02-02T22:37:25.116Z,24.63
2019-02-02T22:39:56.468Z,22.63
2019-02-02T22:42:27.824Z,20.97
2019-02-02T22:44:59.107Z,20.37
2019-02-02T22:47:30.507Z,20.83
2019-02-02T22:50:01.825Z,19.27
2019-02-02T22:52:34.476Z,17.93
2019-02-02T22:55:13.653Z,18.33
2019-02-02T22:57:45.139Z,17.03
2019-02-02T23:01:00.078Z,16.23
2019-02-02T23:03:45.601Z,16.30
2019-02-02T23:06:39.624Z,15.47
2019-02-02T23:09:44.940Z,14.80
2019-02-02T23:12:23.640Z,15.43
2019-02-02T23:15:33.283Z,15.90
2019-02-02T23:18:04.918Z,14.27
2019-02-02T23:20:36.326Z,13.87
2019-02-02T23:23:07.823Z,15.83
2019-02-02T23:25:39.239Z,14.00
2019-02-02T23:28:10.722Z,16.27
2019-02-02T23:30:42.057Z,14.80
2019-02-02T23:33:13.345Z,14.30
2019-02-02T23:35:44.768Z,14.60
2019-02-02T23:38:16.519Z,14.17
2019-02-02T23:40:49.533Z,14.57
2019-02-02T23:43:20.916Z,13.63
2019-02-02T23:45:52.311Z,13.90
2019-02-02T23:48:23.680Z,13.73
2019-02-02T23:50:54.939Z,15.03
2019-02-02T23:53:26.323Z,14.10
2019-02-02T23:55:57.678Z,13.87
2019-02-02T23:58:29.335Z,14.17
